createdAt,value
2023-04-23T00:00:07.087Z,24.35
2023-04-23T00:02:34.371Z,24.85
2023-04-23T00:05:06.062Z,24.08
2023-04-23T00:07:36.257Z,22.00
2023-04-23T00:10:05.558Z,24.63
2023-04-23T00:12:32.655Z,22.73
2023-04-23T00:15:01.065Z,21.63
2023-04-23T00:17:27.886Z,24.40
2023-04-23T00:19:54.299Z,23.95
2023-04-23T00:22:20.912Z,23.30
2023-04-23T00:24:47.294Z,24.67
2023-04-23T00:27:13.736Z,24.23
2023-04-23T00:29:40.691Z,25.58
2023-04-23T00:32:07.825Z,26.13
2023-04-23T00:34:34.327Z,24.08
2023-04-23T00:37:00.741Z,22.98
2023-04-23T00:39:27.141Z,22.98
2023-04-23T00:41:53.556Z,25.88
2023-04-23T00:44:20.033Z,23.38
2023-04-23T00:46:46.871Z,22.52
2023-04-23T00:49:14.029Z,28.83
2023-04-23T00:51:40.407Z,25.98
2023-04-23T00:54:07.244Z,25.95
2023-04-23T00:56:33.794Z,26.52
2023-04-23T00:59:02.645Z,26.00
2023-04-23T01:01:30.240Z,25.27
2023-04-23T01:03:57.652Z,26.80
2023-04-23T01:06:25.171Z,28.25
2023-04-23T01:08:51.646Z,26.05
2023-04-23T01:11:18.072Z,26.52
2023-04-23T01:13:44.466Z,28.52
2023-04-23T01:16:11.386Z,27.83
2023-04-23T01:18:37.907Z,26.63
2023-04-23T01:21:05.480Z,26.05
2023-04-23T01:23:31.964Z,25.75
2023-04-23T01:25:58.917Z,25.90
2023-04-23T01:28:25.950Z,27.60
2023-04-23T01:30:52.748Z,25.98
2023-04-23T01:33:19.377Z,27.75
2023-04-23T01:35:47.533Z,24.75
2023-04-23T01:38:14.586Z,25.02
2023-04-23T01:40:41.028Z,27.73
2023-04-23T01:43:07.584Z,28.30
2023-04-23T01:45:34.201Z,27.45
2023-04-23T01:48:01.104Z,26.52
2023-04-23T01:50:29.749Z,27.63
2023-04-23T01:52:56.314Z,28.15
2023-04-23T01:55:23.655Z,28.35
2023-04-23T01:57:51.095Z,28.67
2023-04-23T02:00:18.052Z,28.48
2023-04-23T02:02:45.086Z,28.20
2023-04-23T02:05:16.367Z,29.33
2023-04-23T02:10:11.008Z,26.88
2023-04-23T02:12:38.239Z,29.65
2023-04-23T02:15:06.610Z,29.00
2023-04-23T02:17:33.308Z,28.73
2023-04-23T02:19:59.752Z,29.02
2023-04-23T02:22:26.477Z,29.77
2023-04-23T02:24:53.048Z,28.75
2023-04-23T02:27:20.461Z,30.98
2023-04-23T02:29:48.344Z,33.70
2023-04-23T02:32:15.361Z,29.65
2023-04-23T02:34:42.205Z,31.88
2023-04-23T02:37:08.920Z,31.98
2023-04-23T02:39:35.425Z,31.35
2023-04-23T02:42:01.940Z,32.05
2023-04-23T02:44:28.326Z,33.10
2023-04-23T02:46:54.763Z,30.10
2023-04-23T02:49:21.246Z,32.33
2023-04-23T02:51:47.732Z,32.65
2023-04-23T02:54:14.268Z,33.97
2023-04-23T02:56:40.812Z,32.60
2023-04-23T02:59:08.379Z,32.40
2023-04-23T03:01:34.866Z,30.75
2023-04-23T03:04:01.956Z,30.50
2023-04-23T03:06:28.942Z,29.80
2023-04-23T03:08:56.048Z,32.15
2023-04-23T03:11:22.669Z,31.00
2023-04-23T03:13:49.251Z,33.10
2023-04-23T03:16:16.017Z,31.77
2023-04-23T03:18:42.401Z,30.83
2023-04-23T03:21:08.818Z,30.73
2023-04-23T03:23:36.197Z,31.80
2023-04-23T03:26:02.573Z,33.33
2023-04-23T03:28:29.331Z,31.63
2023-04-23T03:30:56.551Z,30.95
2023-04-23T03:33:22.973Z,34.47
2023-04-23T03:35:49.392Z,31.80
2023-04-23T03:38:15.806Z,31.80
2023-04-23T03:40:42.209Z,30.35
2023-04-23T03:43:08.592Z,30.95
2023-04-23T03:45:35.088Z,29.15
2023-04-23T03:48:01.513Z,31.45
2023-04-23T03:50:27.989Z,29.85
2023-04-23T03:52:54.406Z,28.73
2023-04-23T03:55:21.099Z,29.52
2023-04-23T03:57:47.518Z,30.55
2023-04-23T04:00:14.620Z,30.13
2023-04-23T04:02:41.166Z,31.27
2023-04-23T04:05:09.318Z,30.10
2023-04-23T04:07:37.041Z,31.08
2023-04-23T04:10:05.638Z,30.73
2023-04-23T04:12:32.276Z,30.90
2023-04-23T04:14:59.077Z,29.95
2023-04-23T04:17:25.622Z,29.73
2023-04-23T04:19:52.214Z,32.05
2023-04-23T04:22:18.719Z,29.45
2023-04-23T04:24:47.379Z,29.35
2023-04-23T04:27:15.053Z,29.15
2023-04-23T04:29:41.473Z,29.20
2023-04-23T04:32:09.385Z,28.80
2023-04-23T04:34:38.255Z,28.65
2023-04-23T04:37:04.932Z,29.40
2023-04-23T04:39:31.403Z,28.38
2023-04-23T04:41:59.839Z,28.13
2023-04-23T04:44:26.387Z,27.75
2023-04-23T04:46:53.711Z,26.00
2023-04-23T04:49:21.796Z,26.77
2023-04-23T04:51:48.221Z,28.42
2023-04-23T04:54:14.629Z,27.27
2023-04-23T04:56:41.118Z,28.42
2023-04-23T04:59:07.559Z,28.63
2023-04-23T05:01:34.136Z,27.33
2023-04-23T05:04:00.981Z,28.67
2023-04-23T05:06:28.633Z,27.50
2023-04-23T05:08:55.313Z,27.92
2023-04-23T05:11:21.789Z,27.65
2023-04-23T05:13:48.728Z,27.88
2023-04-23T05:16:15.703Z,27.75
2023-04-23T05:18:42.649Z,26.45
2023-04-23T05:21:09.187Z,26.80
2023-04-23T05:23:36.277Z,26.45
2023-04-23T05:26:03.614Z,25.13
2023-04-23T05:28:31.302Z,27.02
2023-04-23T05:30:58.507Z,28.00
2023-04-23T05:33:30.735Z,27.65
2023-04-23T05:35:59.725Z,27.73
2023-04-23T05:38:26.366Z,27.20
2023-04-23T05:40:52.791Z,29.85
2023-04-23T05:43:19.305Z,32.67
2023-04-23T05:45:45.851Z,25.50
2023-04-23T05:48:12.402Z,27.17
2023-04-23T05:50:38.927Z,24.75
2023-04-23T05:53:05.367Z,24.60
2023-04-23T05:55:31.840Z,23.08
2023-04-23T05:57:58.250Z,23.15
2023-04-23T06:00:24.650Z,23.73
2023-04-23T06:02:51.174Z,22.80
2023-04-23T06:05:18.095Z,23.23
2023-04-23T06:07:44.631Z,23.17
2023-04-23T06:10:11.709Z,23.98
2023-04-23T06:12:42.188Z,23.30
2023-04-23T06:15:09.683Z,26.00
2023-04-23T06:17:36.922Z,24.27
2023-04-23T06:20:05.112Z,22.75
2023-04-23T06:22:32.567Z,23.65
2023-04-23T06:24:59.140Z,23.58
2023-04-23T06:27:27.000Z,23.40
2023-04-23T06:29:53.448Z,25.17
2023-04-23T06:32:20.783Z,21.90
2023-04-23T06:35:00.125Z,20.80
2023-04-23T06:37:29.845Z,21.97
2023-04-23T06:39:56.710Z,22.55
2023-04-23T06:42:23.569Z,23.30
2023-04-23T06:44:51.772Z,22.92
2023-04-23T06:47:19.362Z,20.83
2023-04-23T06:49:45.956Z,21.00
2023-04-23T06:52:12.427Z,18.55
2023-04-23T06:54:38.850Z,19.95
2023-04-23T06:57:05.681Z,21.05
2023-04-23T06:59:32.142Z,19.42
2023-04-23T07:01:58.632Z,20.75
2023-04-23T07:04:25.349Z,19.33
2023-04-23T07:06:51.847Z,20.40
2023-04-23T07:09:18.277Z,20.48
2023-04-23T07:11:44.902Z,19.45
2023-04-23T07:14:11.465Z,19.98
2023-04-23T07:16:38.074Z,18.83
2023-04-23T07:19:04.466Z,20.33
2023-04-23T07:21:30.988Z,19.05
2023-04-23T07:23:59.759Z,21.33
2023-04-23T07:26:27.313Z,19.67
2023-04-23T07:28:53.725Z,19.15
2023-04-23T07:31:20.622Z,20.10
2023-04-23T07:33:47.581Z,20.90
2023-04-23T07:36:14.400Z,20.88
2023-04-23T07:38:41.231Z,18.80
2023-04-23T07:41:07.661Z,21.95
2023-04-23T07:43:34.103Z,21.05
2023-04-23T07:46:00.660Z,20.17
2023-04-23T07:48:27.089Z,20.98
2023-04-23T07:50:53.927Z,20.98
2023-04-23T07:53:20.420Z,20.90
2023-04-23T07:55:46.788Z,19.50
2023-04-23T07:58:13.216Z,19.63
2023-04-23T08:00:39.651Z,20.25
2023-04-23T08:03:06.124Z,21.65
2023-04-23T08:05:32.719Z,22.38
2023-04-23T08:07:59.187Z,23.33
2023-04-23T08:10:25.576Z,22.73
2023-04-23T08:12:51.957Z,23.33
2023-04-23T08:15:18.357Z,22.75
2023-04-23T08:17:44.839Z,22.48
2023-04-23T08:20:11.408Z,24.35
2023-04-23T08:22:37.875Z,23.33
2023-04-23T08:25:04.694Z,21.85
2023-04-23T08:27:31.212Z,20.40
2023-04-23T08:29:57.673Z,22.27
2023-04-23T08:32:24.413Z,23.15
2023-04-23T08:34:50.972Z,23.88
2023-04-23T08:37:29.758Z,25.05
2023-04-23T08:39:57.246Z,22.95
2023-04-23T08:43:02.072Z,25.85
2023-04-23T08:45:30.484Z,24.00
2023-04-23T08:48:02.210Z,24.85
2023-04-23T08:50:30.007Z,23.65
2023-04-23T08:52:58.031Z,26.17
2023-04-23T08:55:25.391Z,23.17
2023-04-23T08:57:52.275Z,26.40
2023-04-23T09:00:21.273Z,24.27
2023-04-23T09:02:49.059Z,23.20
2023-04-23T09:05:17.828Z,24.02
2023-04-23T09:07:44.516Z,24.55
2023-04-23T09:10:13.398Z,24.40
2023-04-23T09:12:43.010Z,23.60
2023-04-23T09:15:10.996Z,24.90
2023-04-23T09:17:45.654Z,24.40
2023-04-23T09:20:13.880Z,25.20
2023-04-23T09:22:47.971Z,23.75
2023-04-23T09:25:17.987Z,27.65
2023-04-23T09:27:45.639Z,27.13
2023-04-23T09:30:13.111Z,25.92
2023-04-23T09:32:42.296Z,25.23
2023-04-23T09:35:11.102Z,26.58
2023-04-23T09:37:48.495Z,22.17
2023-04-23T09:40:20.404Z,25.73
2023-04-23T09:42:49.730Z,25.90
2023-04-23T09:45:17.038Z,24.58
2023-04-23T09:47:51.548Z,26.23
2023-04-23T09:50:18.880Z,26.27
2023-04-23T09:52:45.739Z,27.10
2023-04-23T09:55:21.561Z,24.75
2023-04-23T09:57:48.674Z,22.70
2023-04-23T10:00:19.255Z,30.10
2023-04-23T10:02:49.339Z,25.58
2023-04-23T10:05:24.926Z,23.80
2023-04-23T10:07:57.628Z,24.92
2023-04-23T10:10:25.094Z,25.08
2023-04-23T10:12:55.352Z,23.65
2023-04-23T10:15:31.357Z,23.63
2023-04-23T10:17:59.244Z,24.13
2023-04-23T10:20:25.946Z,18.88
2023-04-23T10:22:54.723Z,18.98
2023-04-23T10:25:22.825Z,18.30
2023-04-23T10:27:54.431Z,21.38
2023-04-23T10:30:22.777Z,20.20
2023-04-23T10:32:50.418Z,21.38
2023-04-23T10:35:17.626Z,21.40
2023-04-23T10:37:46.376Z,22.38
2023-04-23T10:40:15.027Z,24.30
2023-04-23T10:42:43.520Z,21.48
2023-04-23T10:47:48.645Z,22.15
2023-04-23T10:50:29.668Z,21.02
2023-04-23T10:55:29.345Z,20.33
2023-04-23T10:57:59.937Z,20.90
2023-04-23T11:00:28.928Z,20.33
2023-04-23T11:02:56.214Z,20.42
2023-04-23T11:05:25.494Z,19.38
2023-04-23T11:10:54.208Z,19.52
2023-04-23T11:13:23.424Z,18.48
2023-04-23T11:16:13.328Z,20.33
2023-04-23T11:19:03.712Z,18.35
2023-04-23T11:22:01.405Z,18.50
2023-04-23T11:24:29.595Z,17.05
2023-04-23T11:26:56.578Z,17.35
2023-04-23T11:29:25.047Z,16.77
2023-04-23T11:32:01.863Z,17.27
2023-04-23T11:34:29.348Z,16.13
2023-04-23T11:36:58.884Z,14.43
2023-04-23T11:39:25.852Z,14.02
2023-04-23T11:41:52.447Z,16.77
2023-04-23T11:44:21.208Z,15.43
2023-04-23T11:46:49.354Z,13.45
2023-04-23T11:49:17.041Z,12.82
2023-04-23T11:51:44.683Z,12.85
2023-04-23T11:54:12.102Z,10.70
2023-04-23T11:56:38.579Z,13.30
2023-04-23T11:59:06.009Z,11.38
2023-04-23T12:01:53.342Z,11.07
2023-04-23T12:04:25.052Z,11.98
2023-04-23T12:06:53.658Z,11.52
2023-04-23T12:09:22.080Z,10.30
2023-04-23T12:11:50.959Z,11.35
2023-04-23T12:14:20.750Z,12.15
2023-04-23T12:16:52.321Z,13.27
2023-04-23T12:19:21.120Z,12.73
2023-04-23T12:21:54.603Z,11.63
2023-04-23T12:24:22.692Z,13.15
2023-04-23T12:26:54.352Z,12.45
2023-04-23T12:29:22.982Z,13.23
2023-04-23T12:31:52.110Z,11.38
2023-04-23T12:34:20.217Z,11.57
2023-04-23T12:36:55.295Z,13.07
2023-04-23T12:39:21.859Z,12.68
2023-04-23T12:41:53.766Z,14.15
2023-04-23T12:44:20.914Z,13.50
2023-04-23T12:46:57.346Z,12.88
2023-04-23T12:49:25.074Z,13.95
2023-04-23T12:51:52.685Z,14.27
2023-04-23T12:54:19.547Z,13.88
2023-04-23T12:56:46.038Z,14.85
2023-04-23T12:59:12.501Z,13.63
2023-04-23T13:01:38.930Z,13.38
2023-04-23T13:04:05.816Z,13.75
2023-04-23T13:06:33.198Z,12.18
2023-04-23T13:09:02.224Z,11.25
2023-04-23T13:11:29.011Z,10.50
2023-04-23T13:13:55.496Z,12.00
2023-04-23T13:16:22.044Z,11.05
2023-04-23T13:18:51.519Z,10.55
2023-04-23T13:21:18.724Z,12.18
2023-04-23T13:23:45.291Z,11.50
2023-04-23T13:26:11.827Z,12.32
2023-04-23T13:28:38.557Z,10.13
2023-04-23T13:31:05.443Z,11.73
2023-04-23T13:33:32.154Z,10.23
2023-04-23T13:36:01.187Z,11.70
2023-04-23T13:38:28.446Z,11.90
2023-04-23T13:40:54.876Z,11.88
2023-04-23T13:43:21.355Z,10.48
2023-04-23T13:45:47.873Z,11.40
2023-04-23T13:48:15.410Z,11.48
2023-04-23T13:50:42.613Z,11.02
2023-04-23T13:53:10.582Z,12.05
2023-04-23T13:55:37.536Z,12.48
2023-04-23T13:58:05.375Z,11.95
2023-04-23T14:00:31.874Z,10.50
2023-04-23T14:02:58.379Z,13.68
2023-04-23T14:05:25.191Z,13.85
2023-04-23T14:07:51.890Z,12.55
2023-04-23T14:10:18.826Z,14.27
2023-04-23T14:12:46.764Z,12.57
2023-04-23T14:15:13.542Z,12.75
2023-04-23T14:17:42.834Z,14.52
2023-04-23T14:20:10.326Z,15.85
2023-04-23T14:22:36.961Z,14.13
2023-04-23T14:25:23.407Z,14.27
2023-04-23T14:27:51.406Z,15.68
2023-04-23T14:30:21.672Z,15.85
2023-04-23T14:32:49.913Z,15.27
2023-04-23T14:35:17.395Z,14.98
2023-04-23T14:37:45.709Z,16.70
2023-04-23T14:40:15.751Z,16.00
2023-04-23T14:42:42.240Z,13.82
2023-04-23T14:45:09.203Z,14.65
2023-04-23T14:47:35.956Z,13.93
2023-04-23T14:50:02.649Z,12.98
2023-04-23T14:52:29.850Z,13.52
2023-04-23T14:54:56.947Z,13.73
2023-04-23T14:57:23.634Z,13.20
2023-04-23T14:59:50.212Z,14.60
2023-04-23T15:02:16.800Z,14.85
2023-04-23T15:04:43.506Z,15.85
2023-04-23T15:07:10.392Z,12.65
2023-04-23T15:09:37.054Z,14.93
2023-04-23T15:12:26.398Z,14.77
2023-04-23T15:14:55.582Z,13.48
2023-04-23T15:17:22.304Z,14.70
2023-04-23T15:19:49.131Z,15.30
2023-04-23T15:22:15.750Z,14.15
2023-04-23T15:24:42.319Z,14.77
2023-04-23T15:27:11.969Z,13.55
2023-04-23T15:29:38.468Z,14.25
2023-04-23T15:32:05.279Z,14.25
2023-04-23T15:34:32.170Z,13.07
2023-04-23T15:36:58.903Z,13.60
2023-04-23T15:39:26.989Z,14.48
2023-04-23T15:41:53.947Z,13.85
2023-04-23T15:44:21.120Z,16.85
2023-04-23T15:46:47.858Z,15.93
2023-04-23T15:49:14.683Z,13.05
2023-04-23T15:51:43.941Z,14.50
2023-04-23T15:54:10.796Z,12.23
2023-04-23T15:56:37.966Z,15.13
2023-04-23T15:59:05.619Z,15.20
2023-04-23T16:01:34.724Z,14.48
2023-04-23T16:06:35.300Z,12.43
2023-04-23T16:09:10.304Z,12.88
2023-04-23T16:11:39.655Z,13.15
2023-04-23T16:14:07.095Z,14.00
2023-04-23T16:16:34.253Z,12.25
2023-04-23T16:19:04.876Z,12.48
2023-04-23T16:21:32.167Z,18.27
2023-04-23T16:24:02.430Z,14.63
2023-04-23T16:26:33.222Z,15.55
2023-04-23T16:34:00.128Z,11.65
2023-04-23T16:36:30.564Z,14.98
2023-04-23T16:38:58.972Z,10.80
2023-04-23T16:41:25.414Z,10.57
2023-04-23T16:43:51.849Z,15.00
2023-04-23T16:46:18.512Z,14.25
2023-04-23T16:48:45.739Z,14.60
2023-04-23T16:51:13.423Z,11.32
2023-04-23T16:53:39.879Z,13.02
2023-04-23T16:56:06.814Z,9.88
2023-04-23T16:58:33.293Z,9.15
2023-04-23T17:00:59.791Z,17.73
2023-04-23T17:03:26.845Z,14.15
2023-04-23T17:06:07.443Z,11.48
2023-04-23T17:08:36.685Z,12.70
2023-04-23T17:11:05.115Z,11.82
2023-04-23T17:13:31.727Z,12.32
2023-04-23T17:15:58.541Z,13.85
2023-04-23T17:18:25.029Z,16.08
2023-04-23T17:20:51.515Z,15.38
2023-04-23T17:23:18.065Z,15.73
2023-04-23T17:25:44.606Z,13.70
2023-04-23T17:28:11.433Z,21.58
2023-04-23T17:30:37.838Z,19.52
2023-04-23T17:33:04.393Z,20.48
2023-04-23T17:35:30.808Z,22.50
2023-04-23T17:37:57.272Z,12.60
2023-04-23T17:40:24.517Z,14.48
2023-04-23T17:42:50.925Z,20.55
2023-04-23T17:45:18.484Z,18.40
2023-04-23T17:47:45.426Z,18.58
2023-04-23T17:50:12.101Z,12.98
2023-04-23T17:52:41.090Z,21.85
2023-04-23T17:55:08.750Z,19.92
2023-04-23T17:57:35.371Z,14.60
2023-04-23T18:00:09.418Z,22.45
2023-04-23T18:02:40.258Z,16.52
2023-04-23T18:05:11.298Z,18.17
2023-04-23T18:07:39.116Z,45.70
2023-04-23T18:10:06.460Z,24.45
2023-04-23T18:12:33.505Z,14.63
2023-04-23T18:15:00.907Z,11.70
2023-04-23T18:17:27.934Z,11.05
2023-04-23T18:19:55.202Z,10.75
2023-04-23T18:22:21.824Z,10.43
2023-04-23T18:24:49.597Z,11.93
2023-04-23T18:27:16.946Z,11.32
2023-04-23T18:29:44.351Z,13.02
2023-04-23T18:32:15.881Z,10.73
2023-04-23T18:34:47.649Z,10.48
2023-04-23T18:37:31.847Z,9.57
2023-04-23T18:39:58.489Z,11.65
2023-04-23T18:42:24.878Z,10.20
2023-04-23T18:44:51.264Z,10.02
2023-04-23T18:47:18.923Z,10.82
2023-04-23T18:49:57.074Z,9.68
2023-04-23T18:52:23.575Z,10.07
2023-04-23T18:54:50.060Z,10.02
2023-04-23T18:57:16.480Z,9.85
2023-04-23T18:59:43.131Z,10.93
2023-04-23T19:02:14.496Z,12.85
2023-04-23T19:04:43.105Z,8.38
2023-04-23T19:07:09.672Z,8.60
2023-04-23T19:09:36.156Z,6.65
2023-04-23T19:12:02.581Z,5.72
2023-04-23T19:14:29.032Z,3.65
2023-04-23T19:16:55.848Z,3.83
2023-04-23T19:19:24.255Z,2.15
2023-04-23T19:21:51.118Z,2.05
2023-04-23T19:24:17.582Z,1.90
2023-04-23T19:26:45.710Z,2.28
2023-04-23T19:29:12.137Z,2.10
2023-04-23T19:31:38.690Z,1.75
2023-04-23T19:34:05.055Z,1.42
2023-04-23T19:36:32.479Z,1.38
2023-04-23T19:38:59.025Z,1.80
2023-04-23T19:41:26.074Z,2.08
2023-04-23T19:43:52.609Z,1.60
2023-04-23T19:46:19.048Z,1.50
2023-04-23T19:48:45.675Z,1.52
2023-04-23T19:51:12.159Z,1.60
2023-04-23T19:53:38.591Z,1.20
2023-04-23T19:56:08.341Z,1.30
2023-04-23T19:58:34.761Z,1.73
2023-04-23T20:01:01.203Z,1.38
2023-04-23T20:03:27.979Z,1.65
2023-04-23T20:05:58.140Z,1.60
2023-04-23T20:08:29.559Z,1.55
2023-04-23T20:10:56.371Z,2.00
2023-04-23T20:13:23.907Z,2.13
2023-04-23T20:15:50.465Z,1.63
2023-04-23T20:18:18.333Z,1.90
2023-04-23T20:20:44.775Z,1.60
2023-04-23T20:23:11.271Z,1.38
2023-04-23T20:25:37.851Z,1.50
2023-04-23T20:28:05.090Z,1.80
2023-04-23T20:30:31.638Z,3.40
2023-04-23T20:32:58.177Z,1.70
2023-04-23T20:35:24.757Z,1.38
2023-04-23T20:37:54.422Z,1.30
2023-04-23T20:40:20.933Z,1.38
2023-04-23T20:42:51.452Z,1.58
2023-04-23T20:45:19.231Z,1.60
2023-04-23T20:47:46.935Z,1.30
2023-04-23T20:50:14.188Z,1.40
2023-04-23T20:52:40.719Z,1.45
2023-04-23T20:55:07.774Z,1.60
2023-04-23T20:57:34.330Z,1.95
2023-04-23T21:00:00.846Z,1.52
2023-04-23T21:02:27.416Z,1.60
2023-04-23T21:04:53.902Z,1.63
2023-04-23T21:07:20.306Z,1.73
2023-04-23T21:09:46.991Z,2.22
2023-04-23T21:12:13.570Z,2.40
2023-04-23T21:14:40.217Z,1.73
2023-04-23T21:17:06.688Z,1.77
2023-04-23T21:19:33.189Z,1.58
2023-04-23T21:21:59.614Z,4.93
2023-04-23T21:24:26.065Z,1.60
2023-04-23T21:26:52.528Z,1.75
2023-04-23T21:29:19.164Z,1.60
2023-04-23T21:31:47.019Z,2.72
2023-04-23T21:34:15.156Z,2.58
2023-04-23T21:36:41.902Z,2.88
2023-04-23T21:39:08.369Z,1.83
2023-04-23T21:41:35.947Z,2.03
2023-04-23T21:44:02.523Z,1.77
2023-04-23T21:46:30.297Z,2.47
2023-04-23T21:48:56.746Z,1.98
2023-04-23T21:51:23.345Z,2.15
2023-04-23T21:53:49.799Z,1.92
2023-04-23T21:56:16.323Z,2.47
2023-04-23T21:58:43.751Z,1.40
2023-04-23T22:01:10.274Z,1.83
2023-04-23T22:03:39.405Z,1.85
2023-04-23T22:06:06.806Z,2.20
2023-04-23T22:08:33.553Z,2.00
2023-04-23T22:10:59.975Z,2.38
2023-04-23T22:13:26.752Z,2.20
2023-04-23T22:15:53.219Z,1.85
2023-04-23T22:18:19.800Z,2.22
2023-04-23T22:20:49.584Z,2.13
2023-04-23T22:23:16.304Z,2.78
2023-04-23T22:25:42.915Z,4.20
2023-04-23T22:28:09.408Z,2.40
2023-04-23T22:30:35.945Z,2.78
2023-04-23T22:33:02.654Z,3.10
2023-04-23T22:35:29.113Z,3.28
2023-04-23T22:37:55.771Z,2.90
2023-04-23T22:40:22.358Z,2.80
2023-04-23T22:42:48.984Z,3.22
2023-04-23T22:45:15.671Z,3.35
2023-04-23T22:47:42.729Z,2.95
2023-04-23T22:50:09.598Z,4.28
2023-04-23T22:52:35.996Z,3.67
2023-04-23T22:55:02.442Z,4.80
2023-04-23T22:57:29.105Z,5.25
2023-04-23T22:59:55.623Z,4.97
2023-04-23T23:02:22.176Z,5.28
2023-04-23T23:04:49.051Z,5.40
2023-04-23T23:07:15.544Z,4.95
2023-04-23T23:09:42.270Z,6.53
2023-04-23T23:12:09.021Z,5.50
2023-04-23T23:14:37.870Z,5.72
2023-04-23T23:17:06.376Z,5.93
2023-04-23T23:19:32.924Z,6.43
2023-04-23T23:21:59.466Z,6.22
2023-04-23T23:24:25.908Z,7.28
2023-04-23T23:26:52.392Z,7.32
2023-04-23T23:29:18.890Z,6.82
2023-04-23T23:31:45.588Z,7.10
2023-04-23T23:34:12.433Z,7.80
2023-04-23T23:36:38.895Z,8.85
2023-04-23T23:39:06.557Z,7.38
2023-04-23T23:41:33.189Z,5.88
2023-04-23T23:43:59.558Z,5.78
2023-04-23T23:46:26.041Z,5.75
2023-04-23T23:48:53.222Z,6.10
2023-04-23T23:51:19.760Z,4.78
2023-04-23T23:53:46.197Z,4.85
2023-04-23T23:56:12.577Z,4.45
2023-04-23T23:58:39.007Z,4.70
